• Join FlightAware (Why Join?)
  • Login
  • US Flag 
02:59PM EDT


 

Airport Tracker/Info


-or-


 

Live Flight TrackerFlight Track Log ✈ KAL1333 ✈ 01-Jul-2013 ✈ RKSS / GMP - RKJY / RSU

Flight Track Log - Related Links

Times and Time Zones

All times are in EDT time to prevent confusion due to time zone crossing. See the KAL1333 flight status page for this flight to view local times or setup timezone preferences in your user account.

Time Position Orientation Groundspeed Altitude Reporting Facility
EDT Latitude Longitude Course Direction KTS MPH feet Rate Location/Type
09:35PM 37.4400 126.8278 166° South  Level Estimated
09:36PM 37.3216 126.8648 166° South  Level Estimated
09:37PM 37.2033 126.9017 166° South  Level Estimated
09:38PM 37.0849 126.9385 166° South  Level Estimated
09:39PM 36.9665 126.9752 166° South  Level Estimated
09:40PM 36.8482 127.0118 166° South  Level Estimated
09:41PM 36.7298 127.0483 166° South  Level Estimated
09:42PM 36.6114 127.0846 166° South  Level Estimated
09:43PM 36.4929 127.1209 166° South  Level Estimated
09:44PM 36.3745 127.1570 166° South  Level Estimated
09:45PM 36.2561 127.1930 166° South  Level Estimated
09:46PM 36.1782 127.2167 166° South  Level Estimated
09:47PM 36.1004 127.2402 166° South  Level Estimated
09:48PM 36.0225 127.2637 166° South  Level Estimated
09:49PM 35.9447 127.2872 166° South  Level Estimated
09:50PM 35.8668 127.3106 166° South  Level Estimated
09:51PM 35.7890 127.3340 166° South  Level Estimated
09:52PM 35.7111 127.3574 166° South  Level Estimated
09:53PM 35.6332 127.3807 166° South  Level Estimated
09:54PM 35.5553 127.4039 166° South  Level Estimated
09:55PM 35.4775 127.4271 166° South  Level Estimated
09:56PM 35.3996 127.4502 166° South  Level Estimated
09:57PM 35.3217 127.4734 166° South  Level Estimated
09:58PM 35.2438 127.4964 166° South  Level Estimated
09:59PM 35.1659 127.5194 166° South  Level Estimated
10:00PM 35.0880 127.5424 166° South  Level Estimated
10:01PM 35.0101 127.5654 166° South  Level Estimated
10:02PM 34.9322 127.5882 166° South  Level Estimated
10:03PM 34.8543 127.6111 166° South  Level Estimated
10:04PM 34.8398 127.6153 166° South  Level Estimated
10:05PM 34.8398 127.6153 180° South  Level Estimated
10:06PM 34.8398 127.6153 180° South  Level Estimated
10:07PM 34.8398 127.6153 180° South  Level Estimated
10:08PM 34.8398 127.6153 180° South  Level Estimated
10:09PM 34.8398 127.6153 180° South  Level Estimated
10:10PM 34.8398 127.6153 180° South  Level Estimated